sensor_id;sensor_type;location;lat;lon;timestamp;temperature;humidity
74153;DHT22;62505;46.070;14.492;2023-01-10T00:00:12;21.40;72.80
74153;DHT22;62505;46.070;14.492;2023-01-10T00:02:39;21.40;72.80
74153;DHT22;62505;46.070;14.492;2023-01-10T00:05:06;21.50;72.80
74153;DHT22;62505;46.070;14.492;2023-01-10T00:07:33;21.40;72.90
74153;DHT22;62505;46.070;14.492;2023-01-10T00:10:01;21.40;72.80
74153;DHT22;62505;46.070;14.492;2023-01-10T00:12:29;21.40;72.80
74153;DHT22;62505;46.070;14.492;2023-01-10T00:15:13;21.40;72.90
74153;DHT22;62505;46.070;14.492;2023-01-10T00:17:40;21.40;72.80
74153;DHT22;62505;46.070;14.492;2023-01-10T00:20:08;21.40;72.80
74153;DHT22;62505;46.070;14.492;2023-01-10T00:22:35;21.40;72.70
74153;DHT22;62505;46.070;14.492;2023-01-10T00:25:03;21.40;72.70
74153;DHT22;62505;46.070;14.492;2023-01-10T00:27:31;21.40;72.80
74153;DHT22;62505;46.070;14.492;2023-01-10T00:29:59;21.40;72.70
74153;DHT22;62505;46.070;14.492;2023-01-10T00:32:33;21.40;72.80
74153;DHT22;62505;46.070;14.492;2023-01-10T00:35:00;21.50;72.80
74153;DHT22;62505;46.070;14.492;2023-01-10T00:37:29;21.40;72.70
74153;DHT22;62505;46.070;14.492;2023-01-10T00:39:56;21.40;72.80
74153;DHT22;62505;46.070;14.492;2023-01-10T00:42:24;21.40;72.70
74153;DHT22;62505;46.070;14.492;2023-01-10T00:45:10;21.40;72.70
74153;DHT22;62505;46.070;14.492;2023-01-10T00:47:37;21.40;72.70
74153;DHT22;62505;46.070;14.492;2023-01-10T00:50:05;21.40;72.80
74153;DHT22;62505;46.070;14.492;2023-01-10T00:52:33;21.40;72.70
74153;DHT22;62505;46.070;14.492;2023-01-10T00:54:59;21.40;72.70
74153;DHT22;62505;46.070;14.492;2023-01-10T00:57:26;21.40;72.70
74153;DHT22;62505;46.070;14.492;2023-01-10T00:59:53;21.40;72.70
74153;DHT22;62505;46.070;14.492;2023-01-10T01:02:21;21.40;72.80
74153;DHT22;62505;46.070;14.492;2023-01-10T01:04:48;21.40;72.80
74153;DHT22;62505;46.070;14.492;2023-01-10T01:07:15;21.40;72.80
74153;DHT22;62505;46.070;14.492;2023-01-10T01:09:42;21.40;72.70
74153;DHT22;62505;46.070;14.492;2023-01-10T01:12:23;21.40;72.70
74153;DHT22;62505;46.070;14.492;2023-01-10T01:14:49;21.40;72.80
74153;DHT22;62505;46.070;14.492;2023-01-10T01:17:16;21.40;72.70
74153;DHT22;62505;46.070;14.492;2023-01-10T01:19:44;21.40;72.80
74153;DHT22;62505;46.070;14.492;2023-01-10T01:22:11;21.40;72.70
74153;DHT22;62505;46.070;14.492;2023-01-10T01:24:40;21.40;72.70
74153;DHT22;62505;46.070;14.492;2023-01-10T01:27:07;21.40;72.80
74153;DHT22;62505;46.070;14.492;2023-01-10T01:29:34;21.40;72.80
74153;DHT22;62505;46.070;14.492;2023-01-10T01:32:00;21.40;72.80
74153;DHT22;62505;46.070;14.492;2023-01-10T01:34:27;21.40;72.70
74153;DHT22;62505;46.070;14.492;2023-01-10T01:36:56;21.40;72.70
74153;DHT22;62505;46.070;14.492;2023-01-10T01:39:23;21.40;72.70
74153;DHT22;62505;46.070;14.492;2023-01-10T01:41:50;21.40;72.70
74153;DHT22;62505;46.070;14.492;2023-01-10T01:44:23;21.40;72.70
74153;DHT22;62505;46.070;14.492;2023-01-10T01:46:56;21.40;72.70
74153;DHT22;62505;46.070;14.492;2023-01-10T01:49:25;21.40;72.70
74153;DHT22;62505;46.070;14.492;2023-01-10T01:51:58;21.40;72.70
74153;DHT22;62505;46.070;14.492;2023-01-10T01:54:28;21.40;72.70
74153;DHT22;62505;46.070;14.492;2023-01-10T01:56:59;21.40;72.70
74153;DHT22;62505;46.070;14.492;2023-01-10T01:59:30;21.40;72.70
74153;DHT22;62505;46.070;14.492;2023-01-10T02:02:02;21.40;72.70
74153;DHT22;62505;46.070;14.492;2023-01-10T02:04:35;21.40;72.70
74153;DHT22;62505;46.070;14.492;2023-01-10T02:07:05;21.40;72.70
74153;DHT22;62505;46.070;14.492;2023-01-10T02:09:33;21.40;72.70
74153;DHT22;62505;46.070;14.492;2023-01-10T02:12:03;21.40;72.70
74153;DHT22;62505;46.070;14.492;2023-01-10T02:14:31;21.40;72.70
74153;DHT22;62505;46.070;14.492;2023-01-10T02:16:59;21.40;72.70
74153;DHT22;62505;46.070;14.492;2023-01-10T02:19:32;21.40;73.40
74153;DHT22;62505;46.070;14.492;2023-01-10T02:22:31;21.40;72.70
74153;DHT22;62505;46.070;14.492;2023-01-10T02:25:40;21.40;72.70
74153;DHT22;62505;46.070;14.492;2023-01-10T02:28:37;21.40;72.70
74153;DHT22;62505;46.070;14.492;2023-01-10T02:34:18;21.40;72.70
74153;DHT22;62505;46.070;14.492;2023-01-10T02:36:52;21.40;72.70
74153;DHT22;62505;46.070;14.492;2023-01-10T02:39:28;21.40;72.70
74153;DHT22;62505;46.070;14.492;2023-01-10T02:42:00;21.40;72.70
74153;DHT22;62505;46.070;14.492;2023-01-10T02:44:33;21.40;72.70
74153;DHT22;62505;46.070;14.492;2023-01-10T02:47:02;21.40;72.70
74153;DHT22;62505;46.070;14.492;2023-01-10T02:49:39;21.40;72.70
74153;DHT22;62505;46.070;14.492;2023-01-10T02:52:06;21.30;72.60
74153;DHT22;62505;46.070;14.492;2023-01-10T02:54:33;21.40;72.70
74153;DHT22;62505;46.070;14.492;2023-01-10T02:57:13;21.40;72.70
74153;DHT22;62505;46.070;14.492;2023-01-10T02:59:59;21.40;72.60
74153;DHT22;62505;46.070;14.492;2023-01-10T03:02:50;21.40;72.60
74153;DHT22;62505;46.070;14.492;2023-01-10T03:05:27;21.30;72.60
74153;DHT22;62505;46.070;14.492;2023-01-10T03:08:01;21.40;72.60
74153;DHT22;62505;46.070;14.492;2023-01-10T03:10:38;21.30;72.60
74153;DHT22;62505;46.070;14.492;2023-01-10T03:13:11;21.30;72.60
74153;DHT22;62505;46.070;14.492;2023-01-10T03:15:40;21.40;72.60
74153;DHT22;62505;46.070;14.492;2023-01-10T03:18:11;21.40;72.60
74153;DHT22;62505;46.070;14.492;2023-01-10T03:20:41;21.40;72.60
74153;DHT22;62505;46.070;14.492;2023-01-10T03:23:11;21.40;72.60
74153;DHT22;62505;46.070;14.492;2023-01-10T03:25:39;21.30;72.50
74153;DHT22;62505;46.070;14.492;2023-01-10T03:28:11;21.30;72.60
74153;DHT22;62505;46.070;14.492;2023-01-10T03:30:43;21.40;72.60
74153;DHT22;62505;46.070;14.492;2023-01-10T03:33:14;21.30;72.50
74153;DHT22;62505;46.070;14.492;2023-01-10T03:35:50;21.30;72.50
74153;DHT22;62505;46.070;14.492;2023-01-10T03:38:23;21.40;72.60
74153;DHT22;62505;46.070;14.492;2023-01-10T03:40:56;21.30;72.60
74153;DHT22;62505;46.070;14.492;2023-01-10T03:43:35;21.30;72.60
74153;DHT22;62505;46.070;14.492;2023-01-10T03:46:24;21.30;72.50
74153;DHT22;62505;46.070;14.492;2023-01-10T03:48:52;21.30;72.50
74153;DHT22;62505;46.070;14.492;2023-01-10T03:51:22;21.30;72.50
74153;DHT22;62505;46.070;14.492;2023-01-10T03:53:49;21.30;73.30
74153;DHT22;62505;46.070;14.492;2023-01-10T03:56:16;21.30;72.60
74153;DHT22;62505;46.070;14.492;2023-01-10T03:58:43;21.30;72.50
74153;DHT22;62505;46.070;14.492;2023-01-10T04:01:10;21.30;72.50
74153;DHT22;62505;46.070;14.492;2023-01-10T04:03:39;21.30;72.50
74153;DHT22;62505;46.070;14.492;2023-01-10T04:06:06;21.30;72.60
74153;DHT22;62505;46.070;14.492;2023-01-10T04:08:34;21.30;72.50
74153;DHT22;62505;46.070;14.492;2023-01-10T04:11:01;21.30;72.50
74153;DHT22;62505;46.070;14.492;2023-01-10T04:13:28;21.30;72.50
74153;DHT22;62505;46.070;14.492;2023-01-10T04:15:57;21.30;72.50
74153;DHT22;62505;46.070;14.492;2023-01-10T04:18:25;21.30;72.50
74153;DHT22;62505;46.070;14.492;2023-01-10T04:20:52;21.30;72.50
74153;DHT22;62505;46.070;14.492;2023-01-10T04:23:19;21.30;72.50
74153;DHT22;62505;46.070;14.492;2023-01-10T04:25:47;21.30;72.50
74153;DHT22;62505;46.070;14.492;2023-01-10T04:28:14;21.30;72.50
74153;DHT22;62505;46.070;14.492;2023-01-10T04:30:41;21.30;72.50
74153;DHT22;62505;46.070;14.492;2023-01-10T04:33:07;21.30;72.50
74153;DHT22;62505;46.070;14.492;2023-01-10T04:35:36;21.30;72.50
74153;DHT22;62505;46.070;14.492;2023-01-10T04:38:03;21.30;72.50
74153;DHT22;62505;46.070;14.492;2023-01-10T04:40:29;21.30;72.70
74153;DHT22;62505;46.070;14.492;2023-01-10T04:42:58;21.30;72.50
74153;DHT22;62505;46.070;14.492;2023-01-10T04:45:24;21.30;72.50
74153;DHT22;62505;46.070;14.492;2023-01-10T04:47:51;21.30;72.50
74153;DHT22;62505;46.070;14.492;2023-01-10T04:50:21;21.30;72.50
74153;DHT22;62505;46.070;14.492;2023-01-10T04:52:47;21.30;72.50
74153;DHT22;62505;46.070;14.492;2023-01-10T04:55:14;21.30;72.50
74153;DHT22;62505;46.070;14.492;2023-01-10T04:57:41;21.30;74.60
74153;DHT22;62505;46.070;14.492;2023-01-10T05:00:11;21.10;65.80
74153;DHT22;62505;46.070;14.492;2023-01-10T05:02:38;21.10;63.00
74153;DHT22;62505;46.070;14.492;2023-01-10T05:05:08;21.10;63.60
74153;DHT22;62505;46.070;14.492;2023-01-10T05:07:36;21.10;63.80
74153;DHT22;62505;46.070;14.492;2023-01-10T05:10:03;21.10;65.20
74153;DHT22;62505;46.070;14.492;2023-01-10T05:12:30;21.10;65.80
74153;DHT22;62505;46.070;14.492;2023-01-10T05:14:57;21.20;66.20
74153;DHT22;62505;46.070;14.492;2023-01-10T05:17:25;21.20;66.30
74153;DHT22;62505;46.070;14.492;2023-01-10T05:19:52;21.20;66.90
74153;DHT22;62505;46.070;14.492;2023-01-10T05:22:19;21.20;67.10
74153;DHT22;62505;46.070;14.492;2023-01-10T05:24:46;21.20;67.40
74153;DHT22;62505;46.070;14.492;2023-01-10T05:27:13;21.30;71.70
74153;DHT22;62505;46.070;14.492;2023-01-10T05:29:40;21.40;73.10
74153;DHT22;62505;46.070;14.492;2023-01-10T05:32:07;21.50;71.60
74153;DHT22;62505;46.070;14.492;2023-01-10T05:34:35;21.50;72.10
74153;DHT22;62505;46.070;14.492;2023-01-10T05:37:02;21.50;72.30
74153;DHT22;62505;46.070;14.492;2023-01-10T05:39:29;21.60;72.10
74153;DHT22;62505;46.070;14.492;2023-01-10T05:41:55;21.60;72.80
74153;DHT22;62505;46.070;14.492;2023-01-10T05:44:22;21.60;72.40
74153;DHT22;62505;46.070;14.492;2023-01-10T05:46:49;21.70;72.40
74153;DHT22;62505;46.070;14.492;2023-01-10T05:49:16;21.80;72.90
74153;DHT22;62505;46.070;14.492;2023-01-10T05:51:44;21.70;71.90
74153;DHT22;62505;46.070;14.492;2023-01-10T05:54:11;21.80;71.90
74153;DHT22;62505;46.070;14.492;2023-01-10T05:56:38;21.80;72.10
74153;DHT22;62505;46.070;14.492;2023-01-10T05:59:05;21.80;72.00
74153;DHT22;62505;46.070;14.492;2023-01-10T06:01:32;21.80;72.00
74153;DHT22;62505;46.070;14.492;2023-01-10T06:03:58;21.80;72.30
74153;DHT22;62505;46.070;14.492;2023-01-10T06:06:25;21.80;71.90
74153;DHT22;62505;46.070;14.492;2023-01-10T06:08:54;21.80;72.10
74153;DHT22;62505;46.070;14.492;2023-01-10T06:11:23;21.70;72.00
74153;DHT22;62505;46.070;14.492;2023-01-10T06:13:54;21.70;71.90
74153;DHT22;62505;46.070;14.492;2023-01-10T06:16:21;21.70;72.10
74153;DHT22;62505;46.070;14.492;2023-01-10T06:18:48;21.70;72.50
74153;DHT22;62505;46.070;14.492;2023-01-10T06:21:15;21.70;73.20
74153;DHT22;62505;46.070;14.492;2023-01-10T06:23:42;21.70;73.20
74153;DHT22;62505;46.070;14.492;2023-01-10T06:26:11;21.70;73.20
74153;DHT22;62505;46.070;14.492;2023-01-10T06:28:38;21.70;73.20
74153;DHT22;62505;46.070;14.492;2023-01-10T06:31:05;21.70;73.20
74153;DHT22;62505;46.070;14.492;2023-01-10T06:33:33;21.60;73.10
74153;DHT22;62505;46.070;14.492;2023-01-10T06:36:00;21.60;73.10
74153;DHT22;62505;46.070;14.492;2023-01-10T06:38:27;21.60;72.90
74153;DHT22;62505;46.070;14.492;2023-01-10T06:40:53;21.60;72.40
74153;DHT22;62505;46.070;14.492;2023-01-10T06:43:22;21.50;72.20
74153;DHT22;62505;46.070;14.492;2023-01-10T06:45:49;21.50;72.30
74153;DHT22;62505;46.070;14.492;2023-01-10T06:48:16;21.50;72.40
74153;DHT22;62505;46.070;14.492;2023-01-10T06:50:43;21.50;72.50
74153;DHT22;62505;46.070;14.492;2023-01-10T06:53:09;21.50;72.40
74153;DHT22;62505;46.070;14.492;2023-01-10T06:55:36;21.50;72.40
74153;DHT22;62505;46.070;14.492;2023-01-10T06:58:03;21.50;72.50
74153;DHT22;62505;46.070;14.492;2023-01-10T07:00:31;21.50;72.50
74153;DHT22;62505;46.070;14.492;2023-01-10T07:02:59;21.50;72.40
74153;DHT22;62505;46.070;14.492;2023-01-10T07:05:27;21.50;72.30
74153;DHT22;62505;46.070;14.492;2023-01-10T07:07:55;21.50;72.40
74153;DHT22;62505;46.070;14.492;2023-01-10T07:10:23;21.50;73.20
74153;DHT22;62505;46.070;14.492;2023-01-10T07:12:50;21.50;72.40
74153;DHT22;62505;46.070;14.492;2023-01-10T07:15:17;21.40;72.30
74153;DHT22;62505;46.070;14.492;2023-01-10T07:17:45;21.40;72.30
74153;DHT22;62505;46.070;14.492;2023-01-10T07:20:15;21.40;72.30
74153;DHT22;62505;46.070;14.492;2023-01-10T07:22:42;21.40;72.20
74153;DHT22;62505;46.070;14.492;2023-01-10T07:25:09;21.40;72.30
74153;DHT22;62505;46.070;14.492;2023-01-10T07:27:36;21.40;72.30
74153;DHT22;62505;46.070;14.492;2023-01-10T07:30:05;21.40;72.20
74153;DHT22;62505;46.070;14.492;2023-01-10T07:32:33;21.40;72.20
74153;DHT22;62505;46.070;14.492;2023-01-10T07:35:01;21.40;72.30
74153;DHT22;62505;46.070;14.492;2023-01-10T07:37:28;21.40;72.20
74153;DHT22;62505;46.070;14.492;2023-01-10T07:39:54;21.40;72.20
74153;DHT22;62505;46.070;14.492;2023-01-10T07:42:22;21.40;72.20
74153;DHT22;62505;46.070;14.492;2023-01-10T07:44:49;21.40;72.20
74153;DHT22;62505;46.070;14.492;2023-01-10T07:47:15;21.40;72.20
74153;DHT22;62505;46.070;14.492;2023-01-10T07:49:42;21.40;72.20
74153;DHT22;62505;46.070;14.492;2023-01-10T07:52:11;21.40;72.20
74153;DHT22;62505;46.070;14.492;2023-01-10T07:54:37;21.40;72.20
74153;DHT22;62505;46.070;14.492;2023-01-10T07:57:04;21.40;72.10
74153;DHT22;62505;46.070;14.492;2023-01-10T07:59:31;21.40;72.10
74153;DHT22;62505;46.070;14.492;2023-01-10T08:01:58;21.40;72.20
74153;DHT22;62505;46.070;14.492;2023-01-10T08:04:26;21.40;72.10
74153;DHT22;62505;46.070;14.492;2023-01-10T08:06:53;21.40;72.10
74153;DHT22;62505;46.070;14.492;2023-01-10T08:09:21;21.40;72.10
74153;DHT22;62505;46.070;14.492;2023-01-10T08:11:48;21.40;72.10
74153;DHT22;62505;46.070;14.492;2023-01-10T08:14:15;21.40;72.10
74153;DHT22;62505;46.070;14.492;2023-01-10T08:16:42;21.40;72.10
74153;DHT22;62505;46.070;14.492;2023-01-10T08:19:09;21.40;72.10
74153;DHT22;62505;46.070;14.492;2023-01-10T08:21:39;21.40;72.00
74153;DHT22;62505;46.070;14.492;2023-01-10T08:24:06;21.40;72.10
74153;DHT22;62505;46.070;14.492;2023-01-10T08:26:36;21.40;72.10
74153;DHT22;62505;46.070;14.492;2023-01-10T08:29:03;21.40;72.10
74153;DHT22;62505;46.070;14.492;2023-01-10T08:31:30;21.40;72.10
74153;DHT22;62505;46.070;14.492;2023-01-10T08:33:56;21.40;72.00
74153;DHT22;62505;46.070;14.492;2023-01-10T08:36:23;21.40;72.00
74153;DHT22;62505;46.070;14.492;2023-01-10T08:38:53;21.40;72.00
74153;DHT22;62505;46.070;14.492;2023-01-10T08:41:20;21.40;72.00
74153;DHT22;62505;46.070;14.492;2023-01-10T08:43:49;21.40;72.00
74153;DHT22;62505;46.070;14.492;2023-01-10T08:46:16;21.40;72.80
74153;DHT22;62505;46.070;14.492;2023-01-10T08:48:44;21.40;72.00
74153;DHT22;62505;46.070;14.492;2023-01-10T08:51:11;21.40;72.00
74153;DHT22;62505;46.070;14.492;2023-01-10T08:53:38;21.40;72.00
74153;DHT22;62505;46.070;14.492;2023-01-10T08:56:06;21.40;72.00
74153;DHT22;62505;46.070;14.492;2023-01-10T08:58:33;21.40;71.90
74153;DHT22;62505;46.070;14.492;2023-01-10T09:01:04;21.40;71.90
74153;DHT22;62505;46.070;14.492;2023-01-10T09:03:31;21.40;72.00
74153;DHT22;62505;46.070;14.492;2023-01-10T09:05:58;21.40;71.90
74153;DHT22;62505;46.070;14.492;2023-01-10T09:08:25;21.40;71.90
74153;DHT22;62505;46.070;14.492;2023-01-10T09:10:52;21.40;71.80
74153;DHT22;62505;46.070;14.492;2023-01-10T09:13:19;21.40;71.80
74153;DHT22;62505;46.070;14.492;2023-01-10T09:15:46;21.40;71.80
74153;DHT22;62505;46.070;14.492;2023-01-10T09:18:14;21.40;71.80
74153;DHT22;62505;46.070;14.492;2023-01-10T09:20:41;21.40;71.80
74153;DHT22;62505;46.070;14.492;2023-01-10T09:23:10;21.40;71.80
74153;DHT22;62505;46.070;14.492;2023-01-10T09:25:42;21.40;71.80
74153;DHT22;62505;46.070;14.492;2023-01-10T09:28:09;21.40;71.80
74153;DHT22;62505;46.070;14.492;2023-01-10T09:30:36;21.40;72.00
74153;DHT22;62505;46.070;14.492;2023-01-10T09:33:04;21.40;71.80
74153;DHT22;62505;46.070;14.492;2023-01-10T09:35:35;21.40;71.80
74153;DHT22;62505;46.070;14.492;2023-01-10T09:38:03;21.40;71.80
74153;DHT22;62505;46.070;14.492;2023-01-10T09:40:45;21.40;71.90
74153;DHT22;62505;46.070;14.492;2023-01-10T09:43:21;21.40;71.90
74153;DHT22;62505;46.070;14.492;2023-01-10T09:45:58;21.40;71.90
74153;DHT22;62505;46.070;14.492;2023-01-10T09:48:34;21.40;71.90
74153;DHT22;62505;46.070;14.492;2023-01-10T09:51:13;21.40;71.90
74153;DHT22;62505;46.070;14.492;2023-01-10T09:53:44;21.40;72.60
74153;DHT22;62505;46.070;14.492;2023-01-10T09:56:13;21.40;71.90
74153;DHT22;62505;46.070;14.492;2023-01-10T09:58:41;21.40;71.80
74153;DHT22;62505;46.070;14.492;2023-01-10T10:01:13;21.40;71.80
74153;DHT22;62505;46.070;14.492;2023-01-10T10:03:46;21.40;71.80
74153;DHT22;62505;46.070;14.492;2023-01-10T10:06:15;21.40;71.80
74153;DHT22;62505;46.070;14.492;2023-01-10T10:08:44;21.40;71.80
74153;DHT22;62505;46.070;14.492;2023-01-10T10:11:31;21.40;71.50
74153;DHT22;62505;46.070;14.492;2023-01-10T10:14:03;21.40;70.20
74153;DHT22;62505;46.070;14.492;2023-01-10T10:16:38;21.60;69.30
74153;DHT22;62505;46.070;14.492;2023-01-10T10:19:12;21.70;68.70
74153;DHT22;62505;46.070;14.492;2023-01-10T10:21:50;21.70;68.40
74153;DHT22;62505;46.070;14.492;2023-01-10T10:24:33;21.70;69.40
74153;DHT22;62505;46.070;14.492;2023-01-10T10:27:14;21.70;68.90
74153;DHT22;62505;46.070;14.492;2023-01-10T10:32:47;21.70;69.20
74153;DHT22;62505;46.070;14.492;2023-01-10T10:35:20;21.70;69.20
74153;DHT22;62505;46.070;14.492;2023-01-10T10:37:51;21.70;68.80
74153;DHT22;62505;46.070;14.492;2023-01-10T10:40:21;21.70;69.10
74153;DHT22;62505;46.070;14.492;2023-01-10T10:42:52;21.70;69.20
74153;DHT22;62505;46.070;14.492;2023-01-10T10:45:22;21.70;69.20
74153;DHT22;62505;46.070;14.492;2023-01-10T10:47:53;21.70;69.10
74153;DHT22;62505;46.070;14.492;2023-01-10T10:50:27;21.70;69.00
74153;DHT22;62505;46.070;14.492;2023-01-10T10:52:59;21.70;69.00
74153;DHT22;62505;46.070;14.492;2023-01-10T10:55:29;21.70;69.10
74153;DHT22;62505;46.070;14.492;2023-01-10T10:57:56;21.70;68.90
74153;DHT22;62505;46.070;14.492;2023-01-10T11:00:25;21.70;69.30
74153;DHT22;62505;46.070;14.492;2023-01-10T11:02:57;21.70;68.80
74153;DHT22;62505;46.070;14.492;2023-01-10T11:05:31;21.70;69.50
74153;DHT22;62505;46.070;14.492;2023-01-10T11:08:04;21.70;69.50
74153;DHT22;62505;46.070;14.492;2023-01-10T11:10:34;21.70;69.70
74153;DHT22;62505;46.070;14.492;2023-01-10T11:13:04;21.70;69.50
74153;DHT22;62505;46.070;14.492;2023-01-10T11:15:39;21.70;69.60
74153;DHT22;62505;46.070;14.492;2023-01-10T11:18:11;21.70;69.00
74153;DHT22;62505;46.070;14.492;2023-01-10T11:20:47;21.70;69.30
74153;DHT22;62505;46.070;14.492;2023-01-10T11:23:23;21.70;69.60
74153;DHT22;62505;46.070;14.492;2023-01-10T11:25:51;21.70;70.80
74153;DHT22;62505;46.070;14.492;2023-01-10T11:28:20;21.60;70.20
74153;DHT22;62505;46.070;14.492;2023-01-10T11:30:49;21.70;70.20
74153;DHT22;62505;46.070;14.492;2023-01-10T11:33:20;21.70;70.40
74153;DHT22;62505;46.070;14.492;2023-01-10T11:35:59;21.70;70.60
74153;DHT22;62505;46.070;14.492;2023-01-10T11:38:28;21.70;70.60
74153;DHT22;62505;46.070;14.492;2023-01-10T11:40:58;21.70;70.70
74153;DHT22;62505;46.070;14.492;2023-01-10T11:43:28;21.70;70.90
74153;DHT22;62505;46.070;14.492;2023-01-10T11:45:57;21.70;71.00
74153;DHT22;62505;46.070;14.492;2023-01-10T11:48:39;21.70;71.90
74153;DHT22;62505;46.070;14.492;2023-01-10T11:51:16;21.70;72.00
74153;DHT22;62505;46.070;14.492;2023-01-10T11:53:46;21.70;71.30
74153;DHT22;62505;46.070;14.492;2023-01-10T11:56:23;21.70;71.40
74153;DHT22;62505;46.070;14.492;2023-01-10T11:58:51;21.70;71.50
74153;DHT22;62505;46.070;14.492;2023-01-10T12:01:29;21.70;71.70
74153;DHT22;62505;46.070;14.492;2023-01-10T12:03:57;21.70;71.70
74153;DHT22;62505;46.070;14.492;2023-01-10T12:06:25;21.70;71.70
74153;DHT22;62505;46.070;14.492;2023-01-10T12:08:54;21.70;71.90
74153;DHT22;62505;46.070;14.492;2023-01-10T12:11:26;21.80;72.00
74153;DHT22;62505;46.070;14.492;2023-01-10T12:13:55;21.70;71.90
74153;DHT22;62505;46.070;14.492;2023-01-10T12:16:25;21.70;72.10
74153;DHT22;62505;46.070;14.492;2023-01-10T12:18:53;21.70;72.10
74153;DHT22;62505;46.070;14.492;2023-01-10T12:21:25;21.70;72.30
74153;DHT22;62505;46.070;14.492;2023-01-10T12:23:59;21.80;72.30
74153;DHT22;62505;46.070;14.492;2023-01-10T12:26:29;21.80;72.50
74153;DHT22;62505;46.070;14.492;2023-01-10T12:29:00;21.80;72.40
74153;DHT22;62505;46.070;14.492;2023-01-10T12:31:29;21.80;72.50
74153;DHT22;62505;46.070;14.492;2023-01-10T12:34:00;21.80;69.80
74153;DHT22;62505;46.070;14.492;2023-01-10T12:36:35;21.70;69.80
74153;DHT22;62505;46.070;14.492;2023-01-10T12:39:13;21.70;70.70
74153;DHT22;62505;46.070;14.492;2023-01-10T12:41:52;21.70;71.70
74153;DHT22;62505;46.070;14.492;2023-01-10T12:44:39;21.70;71.70
74153;DHT22;62505;46.070;14.492;2023-01-10T12:47:23;21.70;72.10
74153;DHT22;62505;46.070;14.492;2023-01-10T12:50:00;21.80;72.10
74153;DHT22;62505;46.070;14.492;2023-01-10T12:52:32;21.70;70.80
74153;DHT22;62505;46.070;14.492;2023-01-10T12:55:01;21.80;67.80
74153;DHT22;62505;46.070;14.492;2023-01-10T12:57:31;21.80;67.10
74153;DHT22;62505;46.070;14.492;2023-01-10T13:00:02;21.80;68.30
74153;DHT22;62505;46.070;14.492;2023-01-10T13:02:39;21.80;66.60
74153;DHT22;62505;46.070;14.492;2023-01-10T13:05:17;21.80;66.20
74153;DHT22;62505;46.070;14.492;2023-01-10T13:07:46;21.80;67.30
74153;DHT22;62505;46.070;14.492;2023-01-10T13:10:18;21.80;68.30
74153;DHT22;62505;46.070;14.492;2023-01-10T13:12:50;21.80;69.10
74153;DHT22;62505;46.070;14.492;2023-01-10T13:15:22;21.80;69.50
74153;DHT22;62505;46.070;14.492;2023-01-10T13:17:52;21.80;69.60
74153;DHT22;62505;46.070;14.492;2023-01-10T13:20:30;21.80;70.00
74153;DHT22;62505;46.070;14.492;2023-01-10T13:23:13;21.80;70.30
74153;DHT22;62505;46.070;14.492;2023-01-10T13:25:53;21.80;70.50
74153;DHT22;62505;46.070;14.492;2023-01-10T13:28:23;21.80;70.60
74153;DHT22;62505;46.070;14.492;2023-01-10T13:30:51;21.80;71.40
74153;DHT22;62505;46.070;14.492;2023-01-10T13:33:21;21.80;70.80
74153;DHT22;62505;46.070;14.492;2023-01-10T13:35:50;21.80;70.90
74153;DHT22;62505;46.070;14.492;2023-01-10T13:38:19;21.80;71.00
74153;DHT22;62505;46.070;14.492;2023-01-10T13:41:01;21.80;71.20
74153;DHT22;62505;46.070;14.492;2023-01-10T13:43:37;21.80;70.70
74153;DHT22;62505;46.070;14.492;2023-01-10T13:46:33;21.80;71.00
74153;DHT22;62505;46.070;14.492;2023-01-10T13:49:24;21.80;71.20
74153;DHT22;62505;46.070;14.492;2023-01-10T13:58:18;21.80;71.30
74153;DHT22;62505;46.070;14.492;2023-01-10T14:01:21;21.80;71.40
74153;DHT22;62505;46.070;14.492;2023-01-10T14:04:07;21.80;68.10
74153;DHT22;62505;46.070;14.492;2023-01-10T14:06:43;21.80;67.80
74153;DHT22;62505;46.070;14.492;2023-01-10T14:09:30;21.80;69.00
74153;DHT22;62505;46.070;14.492;2023-01-10T14:12:00;21.80;69.30
74153;DHT22;62505;46.070;14.492;2023-01-10T14:14:31;21.80;68.70
74153;DHT22;62505;46.070;14.492;2023-01-10T14:17:11;21.80;68.40
74153;DHT22;62505;46.070;14.492;2023-01-10T14:19:40;21.80;68.80
74153;DHT22;62505;46.070;14.492;2023-01-10T14:22:22;21.80;69.60
74153;DHT22;62505;46.070;14.492;2023-01-10T14:24:52;21.80;69.60
74153;DHT22;62505;46.070;14.492;2023-01-10T14:27:20;21.80;69.80
74153;DHT22;62505;46.070;14.492;2023-01-10T14:29:50;21.70;70.60
74153;DHT22;62505;46.070;14.492;2023-01-10T14:32:29;21.70;69.80
74153;DHT22;62505;46.070;14.492;2023-01-10T14:34:59;21.70;69.80
74153;DHT22;62505;46.070;14.492;2023-01-10T14:37:29;21.70;70.10
74153;DHT22;62505;46.070;14.492;2023-01-10T14:39:59;21.70;70.10
74153;DHT22;62505;46.070;14.492;2023-01-10T14:42:27;21.70;70.20
74153;DHT22;62505;46.070;14.492;2023-01-10T14:44:59;21.70;70.40
74153;DHT22;62505;46.070;14.492;2023-01-10T14:47:30;21.60;70.30
74153;DHT22;62505;46.070;14.492;2023-01-10T14:49:57;21.70;70.40
74153;DHT22;62505;46.070;14.492;2023-01-10T14:52:26;21.60;70.30
74153;DHT22;62505;46.070;14.492;2023-01-10T14:54:57;21.60;70.30
74153;DHT22;62505;46.070;14.492;2023-01-10T14:57:27;21.60;70.10
74153;DHT22;62505;46.070;14.492;2023-01-10T15:00:01;21.60;70.10
74153;DHT22;62505;46.070;14.492;2023-01-10T15:02:31;21.60;70.10
74153;DHT22;62505;46.070;14.492;2023-01-10T15:05:00;21.60;70.10
74153;DHT22;62505;46.070;14.492;2023-01-10T15:07:32;21.60;70.00
74153;DHT22;62505;46.070;14.492;2023-01-10T15:10:00;21.60;70.10
74153;DHT22;62505;46.070;14.492;2023-01-10T15:12:31;21.60;70.30
74153;DHT22;62505;46.070;14.492;2023-01-10T15:15:03;21.60;70.10
74153;DHT22;62505;46.070;14.492;2023-01-10T15:17:33;21.60;70.20
74153;DHT22;62505;46.070;14.492;2023-01-10T15:20:03;21.60;70.20
74153;DHT22;62505;46.070;14.492;2023-01-10T15:22:31;21.60;70.20
74153;DHT22;62505;46.070;14.492;2023-01-10T15:25:00;21.60;70.30
74153;DHT22;62505;46.070;14.492;2023-01-10T15:27:28;21.60;70.20
74153;DHT22;62505;46.070;14.492;2023-01-10T15:29:57;21.60;70.00
74153;DHT22;62505;46.070;14.492;2023-01-10T15:32:27;21.60;70.10
74153;DHT22;62505;46.070;14.492;2023-01-10T15:34:57;21.60;70.20
74153;DHT22;62505;46.070;14.492;2023-01-10T15:37:26;21.60;70.20
74153;DHT22;62505;46.070;14.492;2023-01-10T15:39:59;21.60;70.10
74153;DHT22;62505;46.070;14.492;2023-01-10T15:42:26;21.60;70.10
74153;DHT22;62505;46.070;14.492;2023-01-10T15:44:53;21.60;70.10
74153;DHT22;62505;46.070;14.492;2023-01-10T15:47:48;21.60;69.90